Terminal Aerodrome Forecast
Issued by NWS

Home | Current Version | Previous Version | Text Only | Print | Product List | Glossary On
Versions: 1 2 3 4 5 6 7 8 9 10 11 12 13 14 15 16 17 18
000
FTUS43 KMQT 040520
TAFCMX
TAF
KCMX 040520Z 0406/0506 29019G27KT 5SM BLSN FEW001 BKN025
      TEMPO 0406/0410 2SM BLSN FEW001
     FM041500 29016G28KT 2SM -SHSN BLSN FEW002 OVC020
     FM042100 29015G22KT 3SM -SHSN BLSN BKN025
     FM050000 30011KT P6SM BKN025=

USA.gov is the U.S. government's official web portal to all federal, state and local government web resources and services.